Time;durP1;ratioP1;P1;durP2;ratioP2;P2;SDS_P1;SDS_P2;PMS_P1;PMS_P2;Temp;Humidity;BMP_temperature;BMP_pressure;BME280_temperature;BME280_humidity;BME280_pressure;Samples;Min_cycle;Max_cycle;Signal;HPM_P1;HPM_P2
2021/07/30 00:01:58;;;;;;;12.25;2.33;;;;;;;13.41;89.71;99886.38;5018132;28;20117;-83
2021/07/30 00:04:23;;;;;;;7.28;2.30;;;;;;;13.39;90.75;99881.22;5000977;28;20053;-84
2021/07/30 00:06:48;;;;;;;8.73;2.00;;;;;;;13.38;90.79;99884.72;5001381;28;20022;-84
2021/07/30 00:09:14;;;;;;;7.55;1.85;;;;;;;13.37;90.30;99879.59;5001074;28;20064;-84
2021/07/30 00:11:41;;;;;;;9.98;2.42;;;;;;;13.40;89.86;99880.31;5000653;28;20038;-83
2021/07/30 00:14:07;;;;;;;7.03;1.90;;;;;;;13.30;90.65;99878.97;5006350;28;20525;-84
2021/07/30 00:16:32;;;;;;;10.98;2.50;;;;;;;13.30;91.50;99881.56;5007491;28;20111;-83
2021/07/30 00:18:57;;;;;;;8.80;2.03;;;;;;;13.25;90.83;99878.34;5006733;28;20022;-83
2021/07/30 00:21:23;;;;;;;10.35;2.38;;;;;;;13.28;90.90;99881.66;5006737;28;20049;-83
2021/07/30 00:23:48;;;;;;;8.77;2.28;;;;;;;13.24;91.28;99876.59;5005983;28;20026;-83
2021/07/30 00:26:13;;;;;;;6.75;1.85;;;;;;;13.23;91.27;99873.13;5006509;28;20061;-83
2021/07/30 00:28:39;;;;;;;10.13;2.28;;;;;;;13.26;91.14;99877.41;5024319;28;20386;-83
2021/07/30 00:31:04;;;;;;;9.10;1.92;;;;;;;13.25;91.51;99873.13;5006389;28;20026;-84
2021/07/30 00:33:30;;;;;;;7.63;2.20;;;;;;;13.25;91.91;99878.34;5006163;28;20014;-83
2021/07/30 00:35:55;;;;;;;8.68;1.95;;;;;;;13.18;93.11;99876.81;5006592;28;20033;-84
2021/07/30 00:38:20;;;;;;;12.50;2.17;;;;;;;13.23;92.25;99882.72;5024912;28;20058;-83
2021/07/30 00:40:46;;;;;;;10.48;2.50;;;;;;;13.21;92.87;99876.72;5007038;28;20025;-83
2021/07/30 00:43:11;;;;;;;10.80;2.17;;;;;;;13.22;92.85;99875.81;5007465;28;20026;-83
2021/07/30 00:45:37;;;;;;;14.00;2.70;;;;;;;13.18;92.97;99872.50;5025593;28;20026;-83
2021/07/30 00:48:03;;;;;;;9.55;2.53;;;;;;;13.15;92.74;99875.22;5007752;28;20021;-83
2021/07/30 00:50:28;;;;;;;10.57;2.53;;;;;;;13.18;92.61;99874.22;5007456;28;20026;-83
2021/07/30 00:52:54;;;;;;;13.63;2.80;;;;;;;13.22;92.56;99873.22;5008254;28;20024;-83
2021/07/30 00:55:19;;;;;;;9.80;2.70;;;;;;;13.20;93.29;99875.88;5008310;28;20494;-83
2021/07/30 00:57:45;;;;;;;10.88;2.35;;;;;;;13.25;92.43;99870.53;5008140;28;20041;-83
2021/07/30 01:00:10;;;;;;;10.50;2.22;;;;;;;13.22;91.95;99868.00;5007697;28;20030;-83
2021/07/30 01:02:36;;;;;;;7.60;2.22;;;;;;;13.20;92.38;99864.59;5007043;28;20029;-83
2021/07/30 01:05:03;;;;;;;9.60;2.55;;;;;;;13.21;91.96;99866.28;5007038;28;20017;-84
2021/07/30 01:07:28;;;;;;;12.70;2.83;;;;;;;13.12;92.28;99868.38;5007565;28;20026;-83
2021/07/30 01:09:53;;;;;;;11.98;2.53;;;;;;;13.18;91.95;99863.81;5008200;28;20036;-83
2021/07/30 01:12:19;;;;;;;10.43;2.47;;;;;;;13.17;92.58;99865.56;5006667;28;20482;-83
2021/07/30 01:14:45;;;;;;;10.60;2.33;;;;;;;13.20;92.22;99867.22;5000182;28;20390;-83
2021/07/30 01:17:10;;;;;;;11.40;2.67;;;;;;;13.21;92.09;99874.09;5000431;28;20111;-83
2021/07/30 01:19:35;;;;;;;7.80;2.25;;;;;;;13.15;92.29;99872.63;4999733;28;20033;-83
2021/07/30 01:22:10;;;;;;;8.90;2.28;;;;;;;13.15;92.15;99870.00;4999609;28;20393;-83
2021/07/30 01:24:35;;;;;;;9.23;2.15;;;;;;;13.10;91.78;99864.13;4999645;28;20041;-83
2021/07/30 01:27:00;;;;;;;11.15;2.20;;;;;;;13.12;91.71;99865.78;5000725;28;20038;-83
2021/07/30 01:29:29;;;;;;;12.25;2.30;;;;;;;13.09;92.55;99860.69;5000070;28;20032;-83
2021/07/30 01:31:54;;;;;;;8.85;1.95;;;;;;;13.07;92.08;99864.25;5001110;28;20017;-83
2021/07/30 01:34:20;;;;;;;8.10;2.58;;;;;;;13.01;92.79;99857.53;5000901;28;20052;-83
2021/07/30 01:36:45;;;;;;;7.05;2.05;;;;;;;12.98;92.55;99862.84;5001132;28;20022;-83
2021/07/30 01:39:10;;;;;;;9.75;2.10;;;;;;;12.99;92.57;99859.38;5001722;28;20034;-83
2021/07/30 01:41:36;;;;;;;10.73;2.55;;;;;;;13.05;92.04;99853.91;5001174;28;20091;-83
2021/07/30 01:44:01;;;;;;;10.02;2.42;;;;;;;12.95;93.36;99849.13;5001246;28;20033;-84
2021/07/30 01:46:26;;;;;;;9.90;2.95;;;;;;;12.95;92.57;99857.75;5019305;28;20026;-83
2021/07/30 01:48:51;;;;;;;10.07;2.25;;;;;;;12.91;93.07;99856.19;5002043;28;20103;-83
2021/07/30 01:51:16;;;;;;;12.32;2.30;;;;;;;12.98;91.42;99857.66;5001169;28;20482;-83
2021/07/30 01:53:42;;;;;;;13.50;2.97;;;;;;;12.96;92.19;99858.59;5001773;28;20109;-83
2021/07/30 01:56:07;;;;;;;10.63;2.15;;;;;;;12.96;91.90;99859.47;5001635;28;20037;-83
2021/07/30 01:58:36;;;;;;;9.77;2.40;;;;;;;12.89;92.44;99858.00;5001184;28;20036;-83
2021/07/30 02:01:03;;;;;;;6.35;2.10;;;;;;;12.88;92.32;99851.13;5019540;28;20030;-83
2021/07/30 02:03:28;;;;;;;10.98;2.10;;;;;;;12.87;91.37;99855.47;5002187;28;20029;-83
2021/07/30 02:05:53;;;;;;;8.35;2.33;;;;;;;12.84;92.80;99859.97;5002764;28;20032;-83
2021/07/30 02:08:19;;;;;;;9.45;2.42;;;;;;;12.79;92.47;99852.31;5002660;28;20049;-83
2021/07/30 02:10:44;;;;;;;9.10;2.47;;;;;;;12.73;92.44;99852.56;5002286;28;20359;-83
2021/07/30 02:15:54;;;;;;;7.90;2.58;;;;;;;12.71;92.87;99848.31;5019101;28;20032;-83
2021/07/30 02:18:19;;;;;;;11.43;2.38;;;;;;;12.62;94.04;99846.91;5002037;28;20462;-83
2021/07/30 02:20:45;;;;;;;9.73;2.67;;;;;;;12.60;93.52;99844.38;5001918;28;20033;-83
2021/07/30 02:23:10;;;;;;;8.55;2.83;;;;;;;12.53;95.15;99842.03;5004123;28;20093;-84
2021/07/30 02:25:35;;;;;;;9.43;2.33;;;;;;;12.55;94.10;99848.88;4997689;28;20494;-83
2021/07/30 02:28:00;;;;;;;10.68;2.58;;;;;;;12.51;94.77;99841.28;4997461;28;20069;-83
2021/07/30 02:30:26;;;;;;;12.52;2.70;;;;;;;12.57;93.61;99852.28;4997386;28;20076;-83
2021/07/30 02:32:51;;;;;;;13.38;2.30;;;;;;;12.61;93.71;99853.88;4997263;28;20193;-83
2021/07/30 02:35:16;;;;;;;8.95;2.70;;;;;;;12.56;94.29;99848.00;4997123;28;20030;-83
2021/07/30 02:37:42;;;;;;;11.98;2.97;;;;;;;12.50;95.08;99849.97;4997058;28;20076;-83
2021/07/30 02:40:08;;;;;;;9.07;2.40;;;;;;;12.56;93.84;99849.72;4996876;28;20045;-82
2021/07/30 02:42:33;;;;;;;9.13;2.25;;;;;;;12.51;94.25;99839.53;4996708;28;20037;-83
2021/07/30 02:44:58;;;;;;;8.90;2.42;;;;;;;12.49;94.42;99836.13;4996851;28;20494;-83
2021/07/30 02:47:24;;;;;;;9.57;2.88;;;;;;;12.48;94.91;99851.78;4996924;28;20030;-83
2021/07/30 02:49:49;;;;;;;18.17;2.83;;;;;;;12.50;94.06;99840.44;5014926;28;20030;-83
2021/07/30 02:52:14;;;;;;;10.35;2.85;;;;;;;12.50;94.62;99844.75;4996831;28;20032;-83
2021/07/30 02:54:40;;;;;;;10.25;2.42;;;;;;;12.46;94.91;99833.63;4996975;28;20535;-83
2021/07/30 02:57:05;;;;;;;11.85;2.83;;;;;;;12.47;94.43;99840.56;4996802;28;20025;-83
2021/07/30 02:59:33;;;;;;;9.98;3.13;;;;;;;12.51;94.68;99843.88;4996923;28;20064;-83
2021/07/30 03:01:59;;;;;;;11.25;3.38;;;;;;;12.47;94.42;99844.88;4997063;28;20030;-83
2021/07/30 03:04:24;;;;;;;12.80;3.20;;;;;;;12.40;95.60;99841.66;4996804;28;20441;-84
2021/07/30 03:06:49;;;;;;;9.27;2.30;;;;;;;12.43;95.47;99844.16;4996643;28;20509;-83
2021/07/30 03:09:14;;;;;;;11.82;2.55;;;;;;;12.46;95.60;99848.41;4996640;28;20026;-83
2021/07/30 03:11:40;;;;;;;13.52;3.15;;;;;;;12.38;95.64;99840.91;4996941;28;20026;-83
2021/07/30 03:14:05;;;;;;;9.32;2.67;;;;;;;12.39;96.46;99847.78;4997095;28;20076;-84
2021/07/30 03:16:30;;;;;;;12.00;2.55;;;;;;;12.35;96.57;99847.06;4997599;28;20026;-83
2021/07/30 03:18:55;;;;;;;11.15;3.10;;;;;;;12.35;96.29;99849.66;4997056;28;20017;-83
2021/07/30 03:21:21;;;;;;;9.20;3.28;;;;;;;12.37;95.82;99844.38;4997007;28;20080;-83
2021/07/30 03:23:46;;;;;;;13.82;2.95;;;;;;;12.33;96.25;99845.41;4996856;28;20034;-83
2021/07/30 03:26:11;;;;;;;12.63;2.40;;;;;;;12.28;96.40;99839.50;4997384;28;20120;-83
2021/07/30 03:28:37;;;;;;;9.60;3.05;;;;;;;12.30;95.90;99853.31;4996516;28;20033;-83
2021/07/30 03:31:02;;;;;;;13.98;3.22;;;;;;;12.23;96.57;99846.66;4996746;28;20026;-84
2021/07/30 03:33:28;;;;;;;9.13;3.15;;;;;;;12.19;96.91;99843.28;4996542;28;20021;-83
2021/07/30 03:35:53;;;;;;;11.80;3.40;;;;;;;12.20;96.49;99845.84;4997649;28;20025;-83
2021/07/30 03:38:18;;;;;;;10.88;2.47;;;;;;;12.23;96.44;99844.06;5000187;28;20025;-83
2021/07/30 03:40:44;;;;;;;12.00;3.30;;;;;;;12.27;95.42;99848.22;5000501;28;20501;-83
2021/07/30 03:43:09;;;;;;;12.93;3.17;;;;;;;12.20;95.62;99847.59;5000109;28;20030;-83
2021/07/30 03:45:35;;;;;;;17.13;2.67;;;;;;;12.24;95.74;99843.13;5000425;28;20493;-83
2021/07/30 03:48:00;;;;;;;12.05;2.90;;;;;;;12.27;95.70;99848.22;5000897;28;20026;-83
2021/07/30 03:50:25;;;;;;;14.13;3.17;;;;;;;12.21;96.26;99846.69;5019224;28;20554;-83
2021/07/30 03:52:51;;;;;;;13.95;3.13;;;;;;;12.23;97.07;99844.91;5001371;28;20030;-83
2021/07/30 03:55:16;;;;;;;9.93;2.72;;;;;;;12.20;97.05;99851.06;5000399;28;20030;-83
2021/07/30 03:57:41;;;;;;;12.52;2.97;;;;;;;12.23;96.81;99842.28;5000797;28;20116;-83
2021/07/30 04:00:07;;;;;;;13.05;3.03;;;;;;;12.21;96.78;99847.53;5001192;28;20029;-83
2021/07/30 04:02:33;;;;;;;12.18;3.33;;;;;;;12.28;95.99;99848.16;5001299;28;20055;-83
2021/07/30 04:04:58;;;;;;;13.52;3.55;;;;;;;12.28;95.95;99845.56;5001005;28;20026;-83
2021/07/30 04:07:23;;;;;;;8.75;2.53;;;;;;;12.29;96.55;99851.63;5000806;28;20545;-83
2021/07/30 04:09:48;;;;;;;8.93;3.28;;;;;;;12.31;96.67;99852.41;5001266;28;20026;-83
2021/07/30 04:12:14;;;;;;;14.10;3.33;;;;;;;12.25;96.36;99856.06;5001134;28;20026;-83
2021/07/30 04:14:39;;;;;;;12.60;3.08;;;;;;;12.24;97.00;99843.97;5001546;28;20390;-83
2021/07/30 04:17:06;;;;;;;11.52;3.25;;;;;;;12.25;97.48;99847.44;5001062;28;20033;-83
2021/07/30 04:19:31;;;;;;;9.77;2.83;;;;;;;12.23;97.46;99838.84;5001923;28;20041;-83
2021/07/30 04:21:57;;;;;;;12.30;3.72;;;;;;;12.31;96.87;99844.59;5001791;28;20034;-83
2021/07/30 04:24:22;;;;;;;14.35;3.40;;;;;;;12.31;97.56;99845.44;5001613;28;20045;-83
2021/07/30 04:26:47;;;;;;;12.02;3.20;;;;;;;12.26;98.76;99841.34;5001375;28;20036;-83
2021/07/30 04:29:12;;;;;;;12.77;3.50;;;;;;;12.31;98.03;99840.25;5001446;28;20018;-83
2021/07/30 04:31:40;;;;;;;10.27;3.15;;;;;;;12.31;98.36;99839.41;5001936;28;20022;-83
2021/07/30 04:34:06;;;;;;;11.38;3.40;;;;;;;12.29;98.62;99844.69;5002035;28;20021;-83
2021/07/30 04:36:31;;;;;;;11.95;3.80;;;;;;;12.36;98.69;99853.09;5002506;28;20061;-83
2021/07/30 04:38:57;;;;;;;11.55;3.40;;;;;;;12.34;99.59;99841.88;5002392;28;20026;-82
2021/07/30 04:41:22;;;;;;;11.63;3.88;;;;;;;12.36;99.31;99851.34;5002162;28;20149;-82
2021/07/30 04:43:47;;;;;;;13.27;4.15;;;;;;;12.47;99.50;99845.75;5019634;28;20037;-82
2021/07/30 04:46:16;;;;;;;8.82;3.53;;;;;;;12.42;98.67;99845.06;5002588;28;20033;-83
2021/07/30 04:48:42;;;;;;;10.70;3.72;;;;;;;12.46;99.40;99848.41;5003157;28;20033;-83
2021/07/30 04:51:08;;;;;;;11.85;4.20;;;;;;;12.50;98.97;99842.16;5002988;28;20022;-83
2021/07/30 04:53:33;;;;;;;10.30;3.90;;;;;;;12.57;98.63;99852.28;5003137;28;20018;-83
2021/07/30 04:55:58;;;;;;;11.50;3.83;;;;;;;12.54;98.02;99835.97;5003183;28;20022;-83
2021/07/30 04:58:23;;;;;;;10.98;3.90;;;;;;;12.58;98.71;99848.78;5003131;28;20452;-83
2021/07/30 05:00:49;;;;;;;12.95;4.50;;;;;;;12.62;99.79;99845.16;5003213;28;20061;-83
2021/07/30 05:03:14;;;;;;;13.52;4.45;;;;;;;12.63;99.02;99844.25;5003286;28;20095;-83
2021/07/30 05:05:39;;;;;;;12.25;4.10;;;;;;;12.74;98.03;99850.78;5004110;28;20052;-84
2021/07/30 05:08:05;;;;;;;13.48;4.00;;;;;;;12.83;98.11;99843.47;5006971;28;20034;-83
2021/07/30 05:10:30;;;;;;;12.63;4.53;;;;;;;12.86;98.21;99847.72;4999098;28;20037;-83
2021/07/30 05:12:55;;;;;;;13.75;4.45;;;;;;;12.88;98.58;99848.50;5016721;28;20026;-83
2021/07/30 05:15:21;;;;;;;11.52;4.18;;;;;;;13.00;97.34;99834.16;4999210;28;20022;-83
2021/07/30 05:17:46;;;;;;;15.45;4.15;;;;;;;13.12;96.46;99833.69;4999178;28;20033;-83
2021/07/30 05:20:11;;;;;;;15.27;4.60;;;;;;;13.71;93.78;99842.56;4999596;28;20034;-83
2021/07/30 05:22:38;;;;;;;13.38;4.25;;;;;;;14.26;90.55;99847.97;4999294;28;20078;-83
2021/07/30 05:25:04;;;;;;;10.77;4.32;;;;;;;14.44;88.53;99838.44;5028543;22;20392;-83
2021/07/30 05:27:29;;;;;;;12.80;3.92;;;;;;;14.70;86.99;99848.56;5036737;28;20041;-83
2021/07/30 05:30:01;;;;;;;10.93;4.55;;;;;;;14.96;86.46;99856.94;5055116;28;20465;-83
2021/07/30 05:32:26;;;;;;;9.75;3.97;;;;;;;15.33;84.93;99850.81;5054787;28;20055;-83
2021/07/30 05:34:52;;;;;;;12.55;3.50;;;;;;;15.50;83.05;99856.94;5036933;28;20464;-83
2021/07/30 05:37:17;;;;;;;12.60;4.00;;;;;;;16.11;80.86;99849.47;5036705;28;20021;-83
2021/07/30 05:39:42;;;;;;;13.13;4.35;;;;;;;15.98;80.17;99843.19;5036716;28;20029;-83
2021/07/30 05:42:08;;;;;;;10.90;4.00;;;;;;;16.32;78.82;99851.88;5036539;28;20025;-83
2021/07/30 05:44:33;;;;;;;12.50;3.95;;;;;;;16.42;79.20;99849.63;5054488;28;20017;-83
2021/07/30 05:46:59;;;;;;;22.27;4.38;;;;;;;16.62;77.88;99848.53;5036288;28;20029;-84
2021/07/30 05:49:24;;;;;;;14.30;4.25;;;;;;;17.00;75.97;99846.44;5036571;28;20508;-83
2021/07/30 05:51:49;;;;;;;10.70;4.10;;;;;;;16.76;77.39;99849.50;5036284;28;20025;-83
2021/07/30 05:54:15;;;;;;;13.27;4.25;;;;;;;17.19;76.17;99844.47;5036253;28;20025;-83
2021/07/30 05:56:40;;;;;;;11.88;3.90;;;;;;;17.20;74.96;99848.75;5036414;28;20025;-83
2021/07/30 05:59:05;;;;;;;16.00;4.63;;;;;;;17.19;74.04;99849.69;5035551;28;20405;-83
2021/07/30 06:01:30;;;;;;;14.18;4.75;;;;;;;17.78;73.77;99852.44;5036554;28;20075;-83
2021/07/30 06:03:56;;;;;;;11.00;3.60;;;;;;;17.01;75.57;99845.50;5054772;28;20036;-84
2021/07/30 06:06:21;;;;;;;15.10;4.05;;;;;;;17.68;73.93;99857.34;5036353;28;20025;-85
2021/07/30 06:08:46;;;;;;;11.80;3.70;;;;;;;18.03;73.38;99853.59;5054252;28;20021;-84
2021/07/30 06:11:12;;;;;;;13.43;4.13;;;;;;;18.13;72.35;99849.47;5036765;28;20021;-84
2021/07/30 06:13:37;;;;;;;17.70;4.40;;;;;;;18.15;73.04;99856.31;5036860;28;20021;-84
2021/07/30 06:16:07;;;;;;;15.15;4.90;;;;;;;18.13;71.79;99852.09;5036230;28;20056;-84
2021/07/30 06:18:32;;;;;;;10.77;4.57;;;;;;;18.15;72.77;99848.44;5055267;28;20054;-83
2021/07/30 06:20:57;;;;;;;9.27;3.88;;;;;;;18.54;72.36;99839.03;5055314;28;20033;-84
2021/07/30 06:23:23;;;;;;;15.10;3.88;;;;;;;18.94;69.52;99848.84;5036656;28;20086;-84
2021/07/30 06:25:48;;;;;;;12.40;4.22;;;;;;;19.39;67.14;99844.97;5054049;28;20477;-85
2021/07/30 06:28:13;;;;;;;14.40;4.78;;;;;;;18.90;69.71;99847.31;5036982;28;20033;-84
2021/07/30 06:30:39;;;;;;;15.57;4.40;;;;;;;19.02;69.90;99849.16;5036208;28;20021;-85
2021/07/30 06:33:09;;;;;;;10.07;3.72;;;;;;;19.40;67.58;99851.09;5035923;28;20440;-85
2021/07/30 06:35:34;;;;;;;17.25;4.90;;;;;;;19.63;67.99;99844.28;5036835;28;20477;-85
2021/07/30 06:38:00;;;;;;;14.90;4.60;;;;;;;19.38;68.14;99850.34;5035941;28;20116;-85
2021/07/30 06:40:25;;;;;;;13.27;4.25;;;;;;;19.57;66.19;99845.53;5036148;28;20027;-85
2021/07/30 06:42:50;;;;;;;17.48;4.22;;;;;;;19.32;69.30;99843.69;5036509;28;20029;-85
2021/07/30 06:45:16;;;;;;;13.10;4.85;;;;;;;19.23;67.69;99836.41;5036506;28;20020;-84
2021/07/30 06:47:41;;;;;;;12.10;4.70;;;;;;;19.69;67.24;99846.53;5035710;28;20021;-85
2021/07/30 06:50:07;;;;;;;13.52;4.93;;;;;;;19.69;67.36;99849.16;5036028;28;20380;-85
2021/07/30 06:52:32;;;;;;;12.07;4.45;;;;;;;19.74;65.96;99839.19;5036455;28;20087;-85
2021/07/30 06:54:57;;;;;;;13.77;4.75;;;;;;;19.83;67.78;99835.94;5035873;28;20468;-85
2021/07/30 06:57:23;;;;;;;16.73;4.78;;;;;;;20.29;66.56;99835.38;5036197;28;20029;-84
2021/07/30 06:59:49;;;;;;;14.77;4.82;;;;;;;20.30;64.96;99837.06;5036017;28;20473;-85
2021/07/30 07:02:15;;;;;;;10.63;4.50;;;;;;;20.53;63.10;99829.34;5036221;28;20020;-85
2021/07/30 07:04:40;;;;;;;14.93;4.05;;;;;;;20.81;63.22;99842.25;5036424;28;20036;-85
2021/07/30 07:07:05;;;;;;;11.73;4.32;;;;;;;21.42;61.60;99841.34;5037761;28;20029;-84
2021/07/30 07:09:31;;;;;;;11.43;4.25;;;;;;;21.24;62.49;99840.88;5038516;28;20025;-84
2021/07/30 07:11:56;;;;;;;13.07;4.78;;;;;;;21.42;60.82;99836.06;5043278;28;20025;-84
2021/07/30 07:14:21;;;;;;;16.02;4.80;;;;;;;20.64;63.22;99840.81;5041714;28;20025;-85
2021/07/30 07:16:46;;;;;;;13.43;5.05;;;;;;;21.19;62.02;99837.75;5042045;28;20112;-85
2021/07/30 07:19:12;;;;;;;11.30;4.45;;;;;;;21.70;60.47;99846.19;5040606;28;20040;-84
2021/07/30 07:21:39;;;;;;;10.88;4.20;;;;;;;22.02;59.96;99842.91;5040302;28;20078;-85
2021/07/30 07:24:05;;;;;;;11.77;4.22;;;;;;;22.25;59.41;99844.63;5039851;28;20073;-85
2021/07/30 07:26:32;;;;;;;14.10;4.45;;;;;;;22.03;58.67;99841.94;5039994;28;20515;-85
2021/07/30 07:28:58;;;;;;;12.38;4.32;;;;;;;21.87;60.79;99836.19;5040731;28;20433;-85
2021/07/30 07:31:26;;;;;;;11.18;4.43;;;;;;;21.97;59.01;99837.13;5040190;28;20090;-85
2021/07/30 07:33:51;;;;;;;16.00;4.78;;;;;;;21.40;59.36;99838.81;5040401;28;20020;-85
2021/07/30 07:36:17;;;;;;;10.45;3.80;;;;;;;21.89;59.71;99850.94;5040508;28;20112;-85
2021/07/30 07:38:43;;;;;;;11.38;3.78;;;;;;;21.72;59.15;99840.81;5041099;28;20028;-84
2021/07/30 07:41:09;;;;;;;11.38;3.88;;;;;;;21.75;60.04;99838.78;5041886;28;20031;-84
2021/07/30 07:43:38;;;;;;;11.57;3.88;;;;;;;22.14;59.20;99836.69;5040440;28;20444;-84
2021/07/30 07:46:03;;;;;;;13.23;4.63;;;;;;;22.00;58.32;99839.53;5041647;28;20055;-85
2021/07/30 07:48:28;;;;;;;11.77;3.90;;;;;;;22.83;56.55;99835.66;5039798;28;20530;-85
2021/07/30 07:50:54;;;;;;;10.38;4.47;;;;;;;22.24;59.41;99824.47;5039889;28;20533;-84
2021/07/30 07:53:20;;;;;;;18.13;4.30;;;;;;;22.89;54.37;99829.88;5039668;28;20032;-85
2021/07/30 07:55:48;;;;;;;11.30;4.20;;;;;;;23.10;55.80;99828.16;5039525;28;20025;-85
2021/07/30 07:58:13;;;;;;;12.48;4.03;;;;;;;23.49;54.33;99830.25;5040195;28;20079;-85
2021/07/30 08:00:40;;;;;;;10.57;4.20;;;;;;;23.15;53.06;99830.41;5039588;28;20025;-84
2021/07/30 08:03:05;;;;;;;13.45;3.95;;;;;;;22.80;54.64;99838.56;5040437;28;20484;-85
2021/07/30 08:05:31;;;;;;;16.23;3.67;;;;;;;23.32;53.51;99837.81;5040905;28;20044;-85
2021/07/30 08:07:56;;;;;;;9.05;3.47;;;;;;;23.30;52.13;99839.72;5041407;28;20021;-85
2021/07/30 08:10:21;;;;;;;8.43;3.35;;;;;;;23.21;52.68;99840.50;5041552;28;20029;-84
2021/07/30 08:12:47;;;;;;;9.18;3.70;;;;;;;23.44;54.07;99838.59;5040958;28;20017;-85
2021/07/30 08:15:15;;;;;;;11.23;3.38;;;;;;;23.48;52.14;99842.66;5058960;28;20116;-85
2021/07/30 08:17:40;;;;;;;14.98;4.20;;;;;;;23.61;51.94;99838.00;5039773;28;20028;-85
2021/07/30 08:20:07;;;;;;;14.35;3.38;;;;;;;23.48;51.66;99841.81;5041009;28;20116;-85
2021/07/30 08:22:34;;;;;;;8.88;3.38;;;;;;;23.53;52.62;99834.34;5039540;28;20033;-85
2021/07/30 08:25:00;;;;;;;9.57;3.42;;;;;;;23.96;52.13;99836.03;5039791;28;20629;-85
2021/07/30 08:27:26;;;;;;;8.77;3.05;;;;;;;24.34;50.11;99835.34;5040090;28;20033;-85
2021/07/30 08:29:51;;;;;;;10.48;3.70;;;;;;;23.62;50.65;99839.69;5042980;28;20025;-84
2021/07/30 08:32:17;;;;;;;9.40;2.90;;;;;;;24.28;48.78;99841.19;5042028;28;20135;-84
2021/07/30 08:34:43;;;;;;;11.00;3.33;;;;;;;24.33;50.71;99834.53;5042245;28;20016;-84
2021/07/30 08:37:12;;;;;;;11.27;2.67;;;;;;;24.79;49.56;99834.97;5040695;28;20544;-85
2021/07/30 08:39:37;;;;;;;8.57;3.08;;;;;;;23.98;48.97;99834.91;5057860;28;20025;-84
2021/07/30 08:42:04;;;;;;;8.38;2.97;;;;;;;23.57;49.69;99828.66;5040369;28;20033;-84
2021/07/30 08:44:30;;;;;;;8.60;3.05;;;;;;;24.50;48.84;99819.81;5040649;28;20031;-84
2021/07/30 08:46:56;;;;;;;9.88;3.20;;;;;;;25.24;47.88;99835.28;5041452;28;20025;-85
2021/07/30 08:49:22;;;;;;;9.00;3.20;;;;;;;26.12;46.88;99830.69;5040946;28;20021;-85
2021/07/30 08:51:56;;;;;;;7.20;2.65;;;;;;;25.64;42.95;99830.78;5040245;28;20554;-85
2021/07/30 08:54:21;;;;;;;10.50;3.08;;;;;;;24.83;44.88;99840.81;5041178;28;20473;-85
2021/07/30 08:56:47;;;;;;;10.52;2.50;;;;;;;25.01;43.78;99829.38;5041156;28;20087;-84
2021/07/30 08:59:15;;;;;;;9.25;2.47;;;;;;;25.61;42.91;99831.06;5040311;28;20551;-84
2021/07/30 09:01:51;;;;;;;6.93;2.38;;;;;;;25.81;44.03;99840.72;5039222;28;20155;-85
2021/07/30 09:04:33;;;;;;;11.35;2.53;;;;;;;25.54;42.42;99830.81;5037624;28;20477;-85
2021/07/30 09:07:01;;;;;;;9.32;2.90;;;;;;;25.56;43.07;99838.63;5055852;28;20108;-85
2021/07/30 09:09:26;;;;;;;9.13;2.92;;;;;;;24.78;42.50;99822.66;5037699;28;20481;-85
2021/07/30 09:11:54;;;;;;;9.13;2.03;;;;;;;24.87;42.92;99827.13;5040854;28;20112;-85
2021/07/30 09:14:38;;;;;;;6.38;2.20;;;;;;;24.18;44.32;99829.72;5043159;28;20021;-84
2021/07/30 09:17:05;;;;;;;10.98;2.25;;;;;;;23.54;46.32;99831.56;5042268;28;20025;-84
2021/07/30 09:19:33;;;;;;;6.28;2.00;;;;;;;24.17;43.28;99831.53;5043304;28;20025;-84
2021/07/30 09:22:05;;;;;;;7.60;2.03;;;;;;;24.80;45.40;99826.03;5043881;28;20096;-84
2021/07/30 09:24:39;;;;;;;6.85;2.20;;;;;;;25.86;41.89;99824.31;5042504;28;20081;-84
2021/07/30 09:27:07;;;;;;;6.82;2.40;;;;;;;25.86;42.79;99829.63;5042011;28;20035;-84
2021/07/30 09:29:36;;;;;;;5.90;2.42;;;;;;;26.37;40.48;99823.84;5060828;28;20036;-85
2021/07/30 09:32:10;;;;;;;13.25;2.55;;;;;;;25.24;42.54;99829.97;5042054;28;20029;-85
2021/07/30 09:34:37;;;;;;;9.32;2.33;;;;;;;22.91;46.71;99827.97;5041880;28;20032;-85
2021/07/30 09:37:03;;;;;;;9.88;2.30;;;;;;;22.82;46.05;99831.34;5043796;28;20029;-84
2021/07/30 09:39:35;;;;;;;10.68;2.25;;;;;;;22.33;49.06;99824.69;5044572;28;20056;-85
2021/07/30 09:42:08;;;;;;;10.65;2.58;;;;;;;22.56;46.92;99825.50;5045203;28;20086;-84
2021/07/30 09:44:44;;;;;;;5.57;1.92;;;;;;;21.72;49.55;99828.47;5043092;28;20036;-84
2021/07/30 09:47:12;;;;;;;6.90;2.20;;;;;;;24.98;42.92;99823.53;5043727;28;20040;-84
2021/07/30 09:49:44;;;;;;;7.15;2.40;;;;;;;25.12;40.46;99819.63;5044943;28;20032;-84
2021/07/30 09:52:33;;;;;;;7.32;2.10;;;;;;;23.58;44.56;99827.66;5044773;28;20083;-84
2021/07/30 09:55:00;;;;;;;8.23;2.00;;;;;;;25.06;41.84;99820.16;5045053;28;20139;-85
2021/07/30 09:57:34;;;;;;;7.82;1.90;;;;;;;26.43;38.90;99821.59;5044241;28;20025;-84
2021/07/30 10:00:00;;;;;;;;;;;;;;;26.59;38.40;99812.00;5043085;28;20031;-84
2021/07/30 10:02:28;;;;;;;10.02;2.60;;;;;;;26.89;37.66;99817.13;5041267;28;19913;-85
2021/07/30 10:04:53;;;;;;;8.40;2.40;;;;;;;26.47;39.14;99815.81;5038968;28;20079;-85
2021/07/30 10:07:23;;;;;;;6.22;2.00;;;;;;;25.93;40.29;99810.34;5039334;28;20037;-85
2021/07/30 10:10:07;;;;;;;7.45;2.38;;;;;;;26.83;37.73;99810.59;5038798;28;20028;-85
2021/07/30 10:12:36;;;;;;;7.35;2.35;;;;;;;27.21;37.30;99803.31;5058391;28;20481;-85
2021/07/30 10:15:03;;;;;;;5.28;1.70;;;;;;;26.74;37.02;99795.53;5039951;28;20029;-85
2021/07/30 10:17:36;;;;;;;7.00;1.92;;;;;;;27.25;36.03;99810.84;5040384;28;20112;-85
2021/07/30 10:20:03;;;;;;;8.13;2.60;;;;;;;26.92;36.64;99800.88;5042196;28;20025;-85
2021/07/30 10:22:50;;;;;;;11.80;3.13;;;;;;;27.13;38.84;99790.75;5041765;28;20039;-85
2021/07/30 10:25:26;;;;;;;7.35;1.90;;;;;;;25.98;38.49;99790.44;5039632;28;20047;-85
2021/07/30 10:27:56;;;;;;;9.93;2.17;;;;;;;25.66;39.02;99783.69;5038431;28;20025;-85
2021/07/30 10:30:22;;;;;;;6.43;2.10;;;;;;;26.23;38.52;99783.63;5039138;28;20029;-85
2021/07/30 10:32:48;;;;;;;6.43;2.20;;;;;;;25.62;39.47;99777.00;5037210;28;20477;-85
2021/07/30 10:35:16;;;;;;;6.93;1.85;;;;;;;26.68;37.56;99778.34;5036540;28;20028;-85
2021/07/30 10:37:42;;;;;;;7.38;2.33;;;;;;;24.75;39.59;99778.69;5036329;28;20487;-85
2021/07/30 10:40:22;;;;;;;7.45;1.92;;;;;;;25.24;39.24;99779.53;5036775;28;20025;-85
2021/07/30 10:43:08;;;;;;;6.35;1.90;;;;;;;25.55;38.98;99766.06;5036037;28;20104;-85
2021/07/30 10:45:35;;;;;;;6.80;2.20;;;;;;;24.48;40.74;99774.06;5036746;28;20033;-85
2021/07/30 10:48:15;;;;;;;9.68;2.22;;;;;;;23.66;41.61;99766.16;5036645;28;20055;-85
2021/07/30 10:50:48;;;;;;;11.27;2.05;;;;;;;23.84;41.76;99779.66;5037789;28;20023;-82
2021/07/30 10:53:36;;;;;;;7.55;1.80;;;;;;;23.20;42.76;99776.16;5036936;28;20035;-83
2021/07/30 10:56:05;;;;;;;8.93;2.28;;;;;;;23.27;41.56;99778.28;5036241;28;20493;-83
2021/07/30 10:58:40;;;;;;;7.22;2.42;;;;;;;23.19;44.02;99771.84;5037280;28;20032;-82
2021/07/30 11:01:22;;;;;;;11.85;2.20;;;;;;;24.08;41.66;99774.03;5036178;28;20041;-83
2021/07/30 11:03:50;;;;;;;9.27;2.53;;;;;;;24.21;41.39;99779.09;5035712;28;20044;-83
2021/07/30 11:06:24;;;;;;;6.38;2.30;;;;;;;25.30;38.91;99775.50;5035214;28;20519;-84
2021/07/30 11:11:44;;;;;;;7.28;1.95;;;;;;;23.77;40.88;99765.25;5053215;28;20075;-83
2021/07/30 11:14:23;;;;;;;8.97;2.17;;;;;;;24.44;41.39;99771.78;5036057;28;20024;-83
2021/07/30 11:16:55;;;;;;;9.80;2.28;;;;;;;25.01;39.28;99773.66;5037226;28;20547;-83
2021/07/30 11:19:23;;;;;;;8.45;2.15;;;;;;;24.62;39.74;99758.72;5036254;28;20075;-83
2021/07/30 11:21:49;;;;;;;8.70;2.00;;;;;;;24.77;40.83;99760.81;5035300;28;20021;-83
2021/07/30 11:24:15;;;;;;;6.15;2.35;;;;;;;25.30;38.28;99758.72;5035123;28;20066;-83
2021/07/30 11:26:41;;;;;;;8.10;2.30;;;;;;;25.45;38.14;99747.50;5028566;23;20046;-82
2021/07/30 11:29:09;;;;;;;7.32;2.30;;;;;;;23.99;39.95;99746.53;4995813;28;20379;-85
2021/07/30 11:31:53;;;;;;;9.77;2.00;;;;;;;25.88;38.31;99756.78;4995721;28;20402;-85
2021/07/30 11:34:20;;;;;;;8.48;2.00;;;;;;;25.90;38.06;99749.50;5012949;28;20029;-85